createdAt,value
2018-01-17T00:02:06.657Z,36.30
2018-01-17T00:04:34.384Z,37.23
2018-01-17T00:07:02.233Z,37.03
2018-01-17T00:09:29.951Z,36.27
2018-01-17T00:11:57.737Z,35.83
2018-01-17T00:14:25.563Z,36.63
2018-01-17T00:16:54.141Z,35.00
2018-01-17T00:19:21.946Z,36.80
2018-01-17T00:21:49.735Z,37.17
2018-01-17T00:24:17.527Z,36.87
2018-01-17T00:26:45.330Z,38.43
2018-01-17T00:29:13.119Z,34.93
2018-01-17T00:31:40.866Z,41.03
2018-01-17T00:34:08.603Z,35.37
2018-01-17T00:36:37.144Z,33.70
2018-01-17T00:39:04.992Z,32.83
2018-01-17T00:41:32.798Z,34.60
2018-01-17T00:44:00.548Z,34.50
2018-01-17T00:46:28.373Z,32.63
2018-01-17T00:48:56.106Z,33.17
2018-01-17T00:51:23.930Z,32.30
2018-01-17T00:53:51.705Z,34.90
2018-01-17T00:56:19.431Z,35.30
2018-01-17T00:58:48.035Z,34.73
2018-01-17T01:01:15.769Z,34.73
2018-01-17T01:03:43.564Z,37.23
2018-01-17T01:06:11.383Z,36.30
2018-01-17T01:08:39.129Z,38.00
2018-01-17T01:11:06.902Z,34.03
2018-01-17T01:13:34.664Z,35.30
2018-01-17T01:16:02.410Z,36.93
2018-01-17T01:18:30.168Z,37.03
2018-01-17T01:20:57.984Z,38.47
2018-01-17T01:23:25.739Z,37.27
2018-01-17T01:25:53.545Z,37.80
2018-01-17T01:28:22.068Z,37.43
2018-01-17T01:30:49.792Z,36.50
2018-01-17T01:33:17.568Z,38.70
2018-01-17T01:35:45.372Z,41.60
2018-01-17T01:38:13.151Z,37.77
2018-01-17T01:40:40.858Z,38.47
2018-01-17T01:43:09.441Z,37.97
2018-01-17T01:45:38.014Z,39.63
2018-01-17T01:48:05.761Z,40.13
2018-01-17T01:50:33.565Z,39.70
2018-01-17T01:53:01.296Z,38.37
2018-01-17T01:55:29.042Z,39.30
2018-01-17T01:57:56.787Z,37.83
2018-01-17T02:00:24.592Z,41.20
2018-01-17T02:02:52.341Z,41.10
2018-01-17T02:05:20.072Z,37.97
2018-01-17T02:07:48.700Z,39.83
2018-01-17T02:10:16.470Z,39.93
2018-01-17T02:12:44.252Z,42.33
2018-01-17T02:15:12.119Z,39.70
2018-01-17T02:17:39.927Z,40.23
2018-01-17T02:20:07.674Z,37.97
2018-01-17T02:22:35.468Z,38.77
2018-01-17T02:25:03.227Z,39.93
2018-01-17T02:27:30.993Z,38.20
2018-01-17T02:29:58.797Z,40.60
2018-01-17T02:32:26.615Z,41.20
2018-01-17T02:34:55.173Z,42.60
2018-01-17T02:37:22.917Z,40.10
2018-01-17T02:40:02.365Z,43.33
2018-01-17T02:42:30.126Z,40.20
2018-01-17T02:44:58.936Z,42.40
2018-01-17T02:47:26.678Z,41.40
2018-01-17T02:49:54.437Z,42.67
2018-01-17T02:52:22.228Z,42.83
2018-01-17T02:54:49.996Z,40.37
2018-01-17T02:57:17.740Z,43.83
2018-01-17T02:59:45.502Z,41.20
2018-01-17T03:02:13.277Z,41.83
2018-01-17T03:04:41.019Z,42.60
2018-01-17T03:07:08.826Z,40.53
2018-01-17T03:09:36.682Z,43.30
2018-01-17T03:12:04.526Z,42.97
2018-01-17T03:14:32.324Z,40.80
2018-01-17T03:17:00.093Z,40.60
2018-01-17T03:19:27.827Z,43.43
2018-01-17T03:21:55.636Z,45.00
2018-01-17T03:24:23.463Z,44.53
2018-01-17T03:26:51.276Z,42.10
2018-01-17T03:29:19.111Z,41.40
2018-01-17T03:31:46.945Z,41.67
2018-01-17T03:34:14.693Z,42.40
2018-01-17T03:36:42.432Z,44.40
2018-01-17T03:39:10.198Z,41.77
2018-01-17T03:41:37.992Z,42.70
2018-01-17T03:44:05.741Z,44.93
2018-01-17T03:46:33.545Z,43.83
2018-01-17T03:49:01.301Z,43.77
2018-01-17T03:51:29.107Z,42.90
2018-01-17T03:53:56.863Z,43.20
2018-01-17T03:56:24.603Z,45.10
2018-01-17T03:58:52.396Z,43.40
2018-01-17T04:01:20.160Z,46.67
2018-01-17T04:03:47.884Z,47.70
2018-01-17T04:06:15.659Z,42.47
2018-01-17T04:08:43.410Z,41.67
2018-01-17T04:11:11.213Z,45.10
2018-01-17T04:13:38.941Z,43.67
2018-01-17T04:16:06.788Z,42.53
2018-01-17T04:18:34.512Z,46.30
2018-01-17T04:21:02.314Z,42.73
2018-01-17T04:23:30.150Z,44.00
2018-01-17T04:25:57.960Z,43.47
2018-01-17T04:28:25.762Z,45.73
2018-01-17T04:30:53.536Z,45.10
2018-01-17T04:33:21.351Z,48.00
2018-01-17T04:35:49.124Z,46.30
2018-01-17T04:38:16.919Z,46.77
2018-01-17T04:40:44.713Z,49.83
2018-01-17T04:43:12.514Z,46.90
2018-01-17T04:45:40.428Z,48.00
2018-01-17T04:48:08.234Z,48.87
2018-01-17T04:50:36.832Z,48.80
2018-01-17T04:53:04.554Z,49.53
2018-01-17T04:55:32.311Z,50.30
2018-01-17T04:58:00.078Z,47.47
2018-01-17T05:00:27.840Z,45.43
2018-01-17T05:02:55.583Z,45.40
2018-01-17T05:05:23.325Z,44.43
2018-01-17T05:07:51.139Z,49.07
2018-01-17T05:10:18.976Z,43.93
2018-01-17T05:12:46.785Z,44.40
2018-01-17T05:15:14.545Z,44.10
2018-01-17T05:17:42.397Z,45.67
2018-01-17T05:20:10.176Z,44.23
2018-01-17T05:22:37.969Z,40.87
2018-01-17T05:25:05.771Z,42.30
2018-01-17T05:27:33.609Z,42.27
2018-01-17T05:30:01.381Z,43.40
2018-01-17T05:32:29.287Z,40.47
2018-01-17T05:35:11.314Z,39.90
2018-01-17T05:37:44.431Z,39.63
2018-01-17T05:40:12.301Z,38.97
2018-01-17T05:42:40.168Z,38.20
2018-01-17T05:45:08.145Z,39.10
2018-01-17T05:47:36.013Z,42.53
2018-01-17T05:50:07.238Z,36.80
2018-01-17T05:52:35.287Z,37.83
2018-01-17T05:55:03.298Z,37.07
2018-01-17T05:57:31.156Z,41.27
2018-01-17T05:59:59.342Z,36.50
2018-01-17T06:02:27.409Z,37.40
2018-01-17T06:04:55.269Z,43.33
2018-01-17T06:07:23.238Z,40.60
2018-01-17T06:09:51.321Z,36.43
2018-01-17T06:12:19.378Z,41.50
2018-01-17T06:14:47.456Z,41.90
2018-01-17T06:17:15.425Z,36.50
2018-01-17T06:19:43.282Z,37.60
2018-01-17T06:22:11.267Z,32.80
2018-01-17T06:24:39.230Z,38.33
2018-01-17T06:27:07.086Z,33.57
2018-01-17T06:29:34.955Z,39.23
2018-01-17T06:32:04.486Z,34.77
2018-01-17T06:34:32.541Z,33.50
2018-01-17T06:37:00.616Z,32.40
2018-01-17T06:39:28.791Z,31.43
2018-01-17T06:41:56.879Z,31.80
2018-01-17T06:44:24.749Z,30.00
2018-01-17T06:46:52.598Z,32.43
2018-01-17T06:49:20.566Z,32.13
2018-01-17T06:51:48.542Z,32.23
2018-01-17T06:54:16.618Z,32.00
2018-01-17T06:56:44.582Z,30.40
2018-01-17T06:59:12.446Z,31.47
2018-01-17T07:01:40.307Z,36.70
2018-01-17T07:04:08.183Z,32.50
2018-01-17T07:06:36.039Z,32.03
2018-01-17T07:09:04.119Z,34.67
2018-01-17T07:11:31.977Z,31.13
2018-01-17T07:13:59.851Z,27.97
2018-01-17T07:16:27.823Z,32.07
2018-01-17T07:18:55.678Z,31.03
2018-01-17T07:21:25.410Z,29.50
2018-01-17T07:23:53.255Z,30.33
2018-01-17T07:26:21.075Z,29.83
2018-01-17T07:28:49.304Z,29.73
2018-01-17T07:31:17.172Z,29.80
2018-01-17T07:33:45.854Z,30.87
2018-01-17T07:36:14.222Z,33.57
2018-01-17T07:38:42.687Z,28.33
2018-01-17T07:41:10.925Z,28.33
2018-01-17T07:43:39.565Z,30.77
2018-01-17T07:46:07.435Z,31.67
2018-01-17T07:48:35.311Z,30.10
2018-01-17T07:51:03.275Z,32.37
2018-01-17T07:53:31.144Z,33.20
2018-01-17T07:55:59.359Z,30.43
2018-01-17T07:58:28.165Z,31.33
2018-01-17T08:00:56.589Z,33.00
2018-01-17T08:03:25.530Z,33.80
2018-01-17T08:05:53.437Z,33.77
2018-01-17T08:08:21.312Z,36.50
2018-01-17T08:10:49.429Z,29.43
2018-01-17T08:13:26.359Z,32.60
2018-01-17T08:15:54.220Z,33.97
2018-01-17T08:18:22.119Z,35.27
2018-01-17T08:20:50.158Z,33.43
2018-01-17T08:23:18.369Z,35.40
2018-01-17T08:25:47.638Z,32.60
2018-01-17T08:28:16.072Z,33.67
2018-01-17T08:30:44.092Z,31.80
2018-01-17T08:33:12.163Z,32.30
2018-01-17T08:35:40.130Z,30.60
2018-01-17T08:38:07.987Z,32.67
2018-01-17T08:40:35.862Z,30.07
2018-01-17T08:43:03.737Z,30.20
2018-01-17T08:45:32.407Z,37.10
2018-01-17T08:48:02.629Z,40.27
2018-01-17T08:50:30.606Z,38.30
2018-01-17T08:52:59.393Z,38.50
2018-01-17T08:55:27.968Z,36.30
2018-01-17T08:57:56.051Z,44.40
2018-01-17T09:00:23.908Z,38.70
2018-01-17T09:02:51.781Z,39.13
2018-01-17T09:05:19.641Z,37.97
2018-01-17T09:07:47.616Z,37.93
2018-01-17T09:10:15.486Z,36.53
2018-01-17T09:12:43.452Z,41.40
2018-01-17T09:15:11.307Z,40.13
2018-01-17T09:17:39.182Z,40.03
2018-01-17T09:20:07.150Z,39.10
2018-01-17T09:22:35.012Z,36.13
2018-01-17T09:25:02.990Z,31.43
2018-01-17T09:27:30.958Z,36.93
2018-01-17T09:29:58.816Z,35.67
2018-01-17T09:32:26.688Z,30.50
2018-01-17T09:34:54.558Z,31.30
2018-01-17T09:37:22.415Z,34.67
2018-01-17T09:39:50.291Z,33.90
2018-01-17T09:42:18.146Z,30.33
2018-01-17T09:44:46.023Z,33.70
2018-01-17T09:47:13.991Z,32.50
2018-01-17T09:49:41.859Z,36.50
2018-01-17T09:52:09.715Z,37.03
2018-01-17T09:54:37.591Z,35.43
2018-01-17T09:57:05.550Z,40.80
2018-01-17T09:59:33.425Z,40.20
2018-01-17T10:02:01.296Z,36.80
2018-01-17T10:04:29.164Z,44.87
2018-01-17T10:06:57.125Z,36.83
2018-01-17T10:09:24.984Z,42.77
2018-01-17T10:11:52.862Z,38.13
2018-01-17T10:14:20.719Z,45.83
2018-01-17T10:16:48.585Z,37.77
2018-01-17T10:19:16.450Z,36.23
2018-01-17T10:21:44.318Z,33.77
2018-01-17T10:24:12.196Z,38.90
2018-01-17T10:26:40.054Z,33.30
2018-01-17T10:29:07.916Z,40.30
2018-01-17T10:31:35.895Z,39.20
2018-01-17T10:34:03.853Z,32.40
2018-01-17T10:36:31.729Z,37.73
2018-01-17T10:38:59.586Z,37.37
2018-01-17T10:41:27.406Z,31.50
2018-01-17T10:43:55.327Z,41.07
2018-01-17T10:46:23.185Z,38.83
2018-01-17T10:48:51.163Z,35.90
2018-01-17T10:51:19.025Z,38.90
2018-01-17T10:53:46.899Z,31.13
2018-01-17T10:56:14.764Z,36.07
2018-01-17T10:58:42.629Z,31.70
2018-01-17T11:01:10.494Z,32.67
2018-01-17T11:03:38.352Z,29.40
2018-01-17T11:06:06.330Z,31.43
2018-01-17T11:08:34.196Z,37.77
2018-01-17T11:11:02.064Z,30.20
2018-01-17T11:13:30.751Z,29.20
2018-01-17T11:15:58.823Z,32.93
2018-01-17T11:18:27.506Z,33.83
2018-01-17T11:20:55.366Z,26.50
2018-01-17T11:23:23.240Z,27.63
2018-01-17T11:25:51.102Z,27.20
2018-01-17T11:28:18.965Z,21.50
2018-01-17T11:30:46.942Z,25.00
2018-01-17T11:33:14.910Z,23.30
2018-01-17T11:35:42.767Z,18.73
2018-01-17T11:38:10.749Z,21.30
2018-01-17T11:40:38.636Z,16.13
2018-01-17T11:43:07.296Z,13.73
2018-01-17T11:45:35.165Z,12.80
2018-01-17T11:48:03.135Z,11.80
2018-01-17T11:50:30.990Z,10.37
2018-01-17T11:52:58.966Z,9.43
2018-01-17T11:55:26.835Z,9.47
2018-01-17T11:57:54.699Z,6.60
2018-01-17T12:00:22.671Z,5.60
2018-01-17T12:02:50.534Z,4.80
2018-01-17T12:05:18.392Z,4.50
2018-01-17T12:07:46.370Z,3.57
2018-01-17T12:10:14.237Z,3.37
2018-01-17T12:12:42.105Z,3.60
2018-01-17T12:15:09.966Z,3.57
2018-01-17T12:17:37.840Z,2.53
2018-01-17T12:20:07.136Z,2.30
2018-01-17T12:22:35.709Z,2.57
2018-01-17T12:25:03.794Z,1.90
2018-01-17T12:27:31.758Z,2.60
2018-01-17T12:29:59.724Z,2.20
2018-01-17T12:32:27.586Z,0.90
2018-01-17T12:34:55.565Z,1.17
2018-01-17T12:37:24.248Z,0.70
2018-01-17T12:39:52.927Z,1.70
2018-01-17T12:42:20.906Z,3.53
2018-01-17T12:44:48.872Z,2.83
2018-01-17T12:47:16.731Z,3.90
2018-01-17T12:49:44.598Z,4.80
2018-01-17T12:52:12.462Z,1.67
2018-01-17T12:54:40.339Z,1.10
2018-01-17T12:57:08.206Z,1.93
2018-01-17T12:59:36.177Z,1.23
2018-01-17T13:02:04.855Z,1.10
2018-01-17T13:04:32.820Z,0.83
2018-01-17T13:07:01.511Z,1.63
2018-01-17T13:09:29.380Z,1.00
2018-01-17T13:11:58.068Z,1.67
2018-01-17T13:14:26.034Z,1.07
2018-01-17T13:16:54.719Z,0.90
2018-01-17T13:19:22.588Z,1.30
2018-01-17T13:21:50.555Z,2.27
2018-01-17T13:24:18.416Z,1.27
2018-01-17T13:26:46.392Z,2.00
2018-01-17T13:29:14.250Z,1.30
2018-01-17T13:31:42.114Z,1.10
2018-01-17T13:34:09.988Z,1.10
2018-01-17T13:36:38.770Z,1.73
2018-01-17T13:39:06.637Z,1.87
2018-01-17T13:41:34.502Z,1.60
2018-01-17T13:44:03.534Z,2.67
2018-01-17T13:46:33.038Z,1.57
2018-01-17T13:49:00.927Z,1.50
2018-01-17T13:51:29.605Z,1.43
2018-01-17T13:53:59.471Z,1.10
2018-01-17T13:56:27.383Z,1.27
2018-01-17T13:58:57.344Z,1.70
2018-01-17T14:01:25.405Z,1.53
2018-01-17T14:03:56.024Z,1.67
2018-01-17T14:06:24.075Z,1.90
2018-01-17T14:08:53.901Z,1.77
2018-01-17T14:11:22.238Z,1.87
2018-01-17T14:13:50.239Z,3.73
2018-01-17T14:16:18.832Z,2.60
2018-01-17T14:18:46.991Z,3.03
2018-01-17T14:21:15.668Z,3.27
2018-01-17T14:23:44.350Z,3.87
2018-01-17T14:26:12.333Z,2.80
2018-01-17T14:28:40.292Z,3.90
2018-01-17T14:31:08.363Z,3.00
2018-01-17T14:33:36.230Z,2.40
2018-01-17T14:36:04.917Z,1.90
2018-01-17T14:38:32.895Z,1.90
2018-01-17T14:41:00.754Z,2.97
2018-01-17T14:43:28.730Z,2.30
2018-01-17T14:45:57.414Z,1.10
2018-01-17T14:48:25.381Z,1.03
2018-01-17T14:50:53.350Z,1.00
2018-01-17T14:53:21.208Z,0.87
2018-01-17T14:55:49.083Z,1.17
2018-01-17T14:58:16.948Z,1.20
2018-01-17T15:00:44.808Z,0.70
2018-01-17T15:03:12.888Z,0.80
2018-01-17T15:05:40.959Z,0.80
2018-01-17T15:08:08.818Z,0.57
2018-01-17T15:10:37.716Z,0.70
2018-01-17T15:13:06.392Z,0.67
2018-01-17T15:15:34.266Z,1.10
2018-01-17T15:18:02.225Z,0.83
2018-01-17T15:20:30.099Z,1.13
2018-01-17T15:22:57.961Z,0.90
2018-01-17T15:25:26.042Z,0.97
2018-01-17T15:27:54.719Z,1.03
2018-01-17T15:30:22.736Z,0.77
2018-01-17T15:32:51.313Z,0.80
2018-01-17T15:35:19.176Z,0.70
2018-01-17T15:37:47.153Z,1.00
2018-01-17T15:40:15.936Z,0.67
2018-01-17T15:42:43.911Z,1.20
2018-01-17T15:45:12.595Z,1.10
2018-01-17T15:47:41.271Z,0.90
2018-01-17T15:50:09.140Z,1.23
2018-01-17T15:52:39.012Z,1.23
2018-01-17T15:55:07.236Z,0.80
2018-01-17T15:57:36.404Z,1.23
2018-01-17T16:00:04.300Z,1.27
2018-01-17T16:02:32.205Z,1.60
2018-01-17T16:05:00.855Z,1.57
2018-01-17T16:07:28.726Z,1.10
2018-01-17T16:09:57.401Z,1.10
2018-01-17T16:12:25.266Z,1.20
2018-01-17T16:14:53.953Z,1.40
2018-01-17T16:17:21.826Z,1.57
2018-01-17T16:19:49.693Z,1.90
2018-01-17T16:22:17.550Z,1.80
2018-01-17T16:24:45.418Z,2.00
2018-01-17T16:27:13.287Z,2.10
2018-01-17T16:29:41.153Z,2.40
2018-01-17T16:32:09.014Z,2.10
2018-01-17T16:34:36.880Z,2.40
2018-01-17T16:39:24.627Z,2.20
2018-01-17T16:41:52.494Z,1.80
2018-01-17T16:44:20.368Z,2.37
2018-01-17T16:46:48.233Z,2.33
2018-01-17T16:49:16.102Z,1.83
2018-01-17T16:51:43.958Z,2.30
2018-01-17T16:54:11.937Z,2.40
2018-01-17T16:56:39.908Z,2.57
2018-01-17T16:59:07.871Z,2.20
2018-01-17T17:01:36.046Z,2.43
2018-01-17T17:04:05.371Z,2.70
2018-01-17T17:06:36.438Z,2.60
2018-01-17T17:09:04.636Z,2.70
2018-01-17T17:11:33.900Z,2.97
2018-01-17T17:14:03.432Z,3.50
2018-01-17T17:16:32.361Z,2.77
2018-01-17T17:19:01.571Z,2.70
2018-01-17T17:21:30.612Z,2.70
2018-01-17T17:23:59.275Z,2.33
2018-01-17T17:26:28.029Z,2.43
2018-01-17T17:28:57.613Z,2.80
2018-01-17T17:31:25.724Z,3.10
2018-01-17T17:33:53.581Z,2.73
2018-01-17T17:36:21.557Z,1.77
2018-01-17T17:38:49.417Z,2.27
2018-01-17T17:41:17.293Z,2.30
2018-01-17T17:43:45.147Z,2.57
2018-01-17T17:46:13.122Z,2.67
2018-01-17T17:48:41.803Z,2.07
2018-01-17T17:51:09.777Z,2.07
2018-01-17T17:53:38.157Z,2.10
2018-01-17T17:56:06.126Z,2.50
2018-01-17T17:58:35.424Z,1.87
2018-01-17T18:01:03.500Z,1.20
2018-01-17T18:03:31.628Z,1.53
2018-01-17T18:09:14.121Z,1.30
2018-01-17T18:11:45.866Z,1.57
2018-01-17T18:14:13.740Z,1.40
2018-01-17T18:16:41.598Z,1.60
2018-01-17T18:19:10.183Z,1.40
2018-01-17T18:21:38.150Z,1.20
2018-01-17T18:24:08.315Z,1.33
2018-01-17T18:26:37.887Z,1.77
2018-01-17T18:29:05.743Z,1.20
2018-01-17T18:31:34.537Z,1.37
2018-01-17T18:34:16.236Z,1.93
2018-01-17T18:36:45.688Z,1.83
2018-01-17T18:39:13.583Z,1.90
2018-01-17T18:41:41.459Z,1.80
2018-01-17T18:44:09.331Z,2.17
2018-01-17T18:46:38.543Z,2.07
2018-01-17T18:49:07.208Z,2.17
2018-01-17T18:51:35.381Z,2.10
2018-01-17T18:54:03.989Z,1.80
2018-01-17T18:56:32.854Z,1.37
2018-01-17T18:59:00.981Z,1.67
2018-01-17T19:01:28.966Z,2.33
2018-01-17T19:04:00.574Z,1.73
2018-01-17T19:09:45.076Z,2.40
2018-01-17T19:12:19.805Z,2.67
2018-01-17T19:14:48.546Z,3.00
2018-01-17T19:17:19.830Z,2.20
2018-01-17T19:19:48.573Z,2.60
2018-01-17T19:22:22.052Z,2.13
2018-01-17T19:24:49.952Z,1.67
2018-01-17T19:27:18.626Z,2.00
2018-01-17T19:29:46.706Z,1.77
2018-01-17T19:32:14.775Z,2.30
2018-01-17T19:34:42.632Z,1.50
2018-01-17T19:37:10.500Z,2.50
2018-01-17T19:39:38.377Z,2.50
2018-01-17T19:42:06.344Z,1.77
2018-01-17T19:44:35.180Z,2.50
2018-01-17T19:47:03.101Z,2.60
2018-01-17T19:49:30.960Z,2.20
2018-01-17T19:51:58.827Z,2.23
2018-01-17T19:54:26.703Z,3.20
2018-01-17T19:56:56.620Z,1.70
2018-01-17T19:59:27.324Z,1.97
2018-01-17T20:01:55.418Z,1.90
2018-01-17T20:04:23.287Z,1.57
2018-01-17T20:06:51.252Z,2.10
2018-01-17T20:09:19.111Z,2.00
2018-01-17T20:11:49.010Z,2.10
2018-01-17T20:14:18.999Z,2.53
2018-01-17T20:16:47.787Z,1.63
2018-01-17T20:19:15.696Z,2.60
2018-01-17T20:21:45.454Z,1.67
2018-01-17T20:24:14.197Z,1.70
2018-01-17T20:26:43.486Z,2.03
2018-01-17T20:29:12.177Z,1.60
2018-01-17T20:31:40.216Z,1.80
2018-01-17T20:34:08.832Z,1.50
2018-01-17T20:36:36.657Z,1.60
2018-01-17T20:39:07.253Z,1.57
2018-01-17T20:41:36.550Z,1.80
2018-01-17T20:44:06.944Z,1.20
2018-01-17T20:46:36.476Z,1.20
2018-01-17T20:49:05.987Z,1.10
2018-01-17T20:51:35.276Z,1.37
2018-01-17T20:54:05.332Z,1.17
2018-01-17T20:56:33.357Z,1.10
2018-01-17T20:59:02.363Z,1.83
2018-01-17T21:01:31.108Z,1.67
2018-01-17T21:03:59.012Z,1.60
2018-01-17T21:06:26.875Z,1.60
2018-01-17T21:08:54.702Z,1.27
2018-01-17T21:11:22.602Z,1.63
2018-01-17T21:13:51.673Z,1.20
2018-01-17T21:16:19.573Z,1.50
2018-01-17T21:18:47.532Z,1.50
2018-01-17T21:21:16.194Z,1.33
2018-01-17T21:23:45.971Z,1.40
2018-01-17T21:26:14.109Z,1.53
2018-01-17T21:28:43.669Z,1.10
2018-01-17T21:31:11.677Z,1.47
2018-01-17T21:33:41.068Z,1.50
2018-01-17T21:36:08.949Z,1.10
2018-01-17T21:38:36.816Z,1.50
2018-01-17T21:41:04.682Z,1.07
2018-01-17T21:43:38.181Z,1.10
2018-01-17T21:46:06.046Z,0.80
2018-01-17T21:48:33.911Z,0.70
2018-01-17T21:51:01.780Z,1.07
2018-01-17T21:53:29.860Z,0.80
2018-01-17T21:55:57.828Z,1.10
2018-01-17T21:58:25.691Z,1.13
2018-01-17T22:00:53.553Z,0.80
2018-01-17T22:03:21.417Z,1.10
2018-01-17T22:05:49.285Z,1.00
2018-01-17T22:08:17.162Z,0.93
2018-01-17T22:10:45.128Z,1.10
2018-01-17T22:13:13.090Z,0.93
2018-01-17T22:15:41.068Z,1.00
2018-01-17T22:18:09.029Z,1.00
2018-01-17T22:20:37.005Z,0.93
2018-01-17T22:23:05.078Z,1.20
2018-01-17T22:25:33.051Z,1.30
2018-01-17T22:28:01.724Z,0.90
2018-01-17T22:30:29.690Z,1.00
2018-01-17T22:32:57.609Z,0.73
2018-01-17T22:35:25.784Z,0.73
2018-01-17T22:37:54.470Z,0.80
2018-01-17T22:40:22.446Z,0.70
2018-01-17T22:42:50.318Z,0.80
2018-01-17T22:45:19.100Z,0.80
2018-01-17T22:47:47.067Z,0.83
2018-01-17T22:50:15.747Z,0.83
2018-01-17T22:52:43.622Z,0.60
2018-01-17T22:55:11.477Z,1.00
2018-01-17T22:57:39.352Z,0.53
2018-01-17T23:00:07.324Z,0.60
2018-01-17T23:02:35.283Z,0.63
2018-01-17T23:05:03.158Z,0.77
2018-01-17T23:07:31.843Z,0.90
2018-01-17T23:10:00.044Z,0.67
2018-01-17T23:12:27.983Z,0.80
2018-01-17T23:14:56.764Z,0.80
2018-01-17T23:17:25.554Z,0.87
2018-01-17T23:19:53.438Z,0.80
2018-01-17T23:22:22.018Z,0.70
2018-01-17T23:24:50.910Z,0.90
2018-01-17T23:27:18.653Z,1.20
2018-01-17T23:29:46.665Z,0.77
2018-01-17T23:32:14.632Z,0.90
2018-01-17T23:34:42.434Z,0.90
2018-01-17T23:37:10.208Z,0.93
2018-01-17T23:39:38.289Z,0.70
2018-01-17T23:42:06.688Z,0.87
2018-01-17T23:44:34.500Z,0.97
2018-01-17T23:47:03.024Z,1.70
2018-01-17T23:49:30.834Z,1.13
2018-01-17T23:51:58.777Z,1.27
2018-01-17T23:54:26.534Z,1.00
2018-01-17T23:56:54.280Z,0.80
2018-01-17T23:59:22.097Z,0.70
